sensor_id;sensor_type;location;lat;lon;timestamp;P1;durP1;ratioP1;P2;durP2;ratioP2
63738;SDS011;68816;45.558;10.070;2023-08-24T00:01:25;20.90;;;16.73;;
63738;SDS011;68816;45.558;10.070;2023-08-24T00:03:51;18.42;;;16.55;;
63738;SDS011;68816;45.558;10.070;2023-08-24T00:06:16;20.15;;;17.17;;
63738;SDS011;68816;45.558;10.070;2023-08-24T00:08:42;21.08;;;17.05;;
63738;SDS011;68816;45.558;10.070;2023-08-24T00:11:08;21.10;;;17.38;;
63738;SDS011;68816;45.558;10.070;2023-08-24T00:13:36;24.50;;;17.70;;
63738;SDS011;68816;45.558;10.070;2023-08-24T00:16:02;21.70;;;17.23;;
63738;SDS011;68816;45.558;10.070;2023-08-24T00:18:27;23.52;;;17.70;;
63738;SDS011;68816;45.558;10.070;2023-08-24T00:20:53;21.98;;;18.50;;
63738;SDS011;68816;45.558;10.070;2023-08-24T00:23:18;21.70;;;18.15;;
63738;SDS011;68816;45.558;10.070;2023-08-24T00:25:44;22.70;;;18.90;;
63738;SDS011;68816;45.558;10.070;2023-08-24T00:28:09;19.88;;;17.75;;
63738;SDS011;68816;45.558;10.070;2023-08-24T00:30:35;19.92;;;17.50;;
63738;SDS011;68816;45.558;10.070;2023-08-24T00:33:01;23.85;;;17.77;;
63738;SDS011;68816;45.558;10.070;2023-08-24T00:35:27;19.40;;;17.40;;
63738;SDS011;68816;45.558;10.070;2023-08-24T00:37:52;18.77;;;16.55;;
63738;SDS011;68816;45.558;10.070;2023-08-24T00:40:18;19.67;;;16.40;;
63738;SDS011;68816;45.558;10.070;2023-08-24T00:42:44;20.98;;;16.30;;
63738;SDS011;68816;45.558;10.070;2023-08-24T00:45:11;17.58;;;15.73;;
63738;SDS011;68816;45.558;10.070;2023-08-24T00:47:42;20.08;;;16.90;;
63738;SDS011;68816;45.558;10.070;2023-08-24T00:50:09;19.55;;;17.42;;
63738;SDS011;68816;45.558;10.070;2023-08-24T00:52:38;21.10;;;16.52;;
63738;SDS011;68816;45.558;10.070;2023-08-24T00:55:06;17.90;;;16.00;;
63738;SDS011;68816;45.558;10.070;2023-08-24T00:57:32;19.13;;;17.05;;
63738;SDS011;68816;45.558;10.070;2023-08-24T00:59:59;19.27;;;16.73;;
63738;SDS011;68816;45.558;10.070;2023-08-24T01:02:27;20.35;;;16.85;;
63738;SDS011;68816;45.558;10.070;2023-08-24T01:04:52;21.85;;;16.92;;
63738;SDS011;68816;45.558;10.070;2023-08-24T01:07:18;21.08;;;16.98;;
63738;SDS011;68816;45.558;10.070;2023-08-24T01:09:45;20.15;;;16.73;;
63738;SDS011;68816;45.558;10.070;2023-08-24T01:15:17;22.80;;;17.25;;
63738;SDS011;68816;45.558;10.070;2023-08-24T01:17:53;22.90;;;17.08;;
63738;SDS011;68816;45.558;10.070;2023-08-24T01:20:22;18.88;;;16.95;;
63738;SDS011;68816;45.558;10.070;2023-08-24T01:22:58;20.25;;;16.00;;
63738;SDS011;68816;45.558;10.070;2023-08-24T01:28:06;22.23;;;16.85;;
63738;SDS011;68816;45.558;10.070;2023-08-24T01:30:34;21.20;;;17.23;;
63738;SDS011;68816;45.558;10.070;2023-08-24T01:33:03;19.80;;;16.63;;
63738;SDS011;68816;45.558;10.070;2023-08-24T01:35:30;20.20;;;16.92;;
63738;SDS011;68816;45.558;10.070;2023-08-24T01:37:56;19.17;;;16.58;;
63738;SDS011;68816;45.558;10.070;2023-08-24T01:40:26;21.63;;;17.23;;
63738;SDS011;68816;45.558;10.070;2023-08-24T01:43:02;21.65;;;16.58;;
63738;SDS011;68816;45.558;10.070;2023-08-24T01:45:31;20.85;;;16.50;;
63738;SDS011;68816;45.558;10.070;2023-08-24T01:47:58;18.33;;;15.98;;
63738;SDS011;68816;45.558;10.070;2023-08-24T01:50:27;20.02;;;15.25;;
63738;SDS011;68816;45.558;10.070;2023-08-24T01:52:54;17.85;;;15.27;;
63738;SDS011;68816;45.558;10.070;2023-08-24T01:55:20;21.08;;;16.77;;
63738;SDS011;68816;45.558;10.070;2023-08-24T01:57:46;20.08;;;15.93;;
63738;SDS011;68816;45.558;10.070;2023-08-24T02:00:12;16.88;;;15.07;;
63738;SDS011;68816;45.558;10.070;2023-08-24T02:02:37;19.83;;;15.82;;
63738;SDS011;68816;45.558;10.070;2023-08-24T02:05:03;20.33;;;15.82;;
63738;SDS011;68816;45.558;10.070;2023-08-24T02:07:29;19.05;;;15.50;;
63738;SDS011;68816;45.558;10.070;2023-08-24T02:09:55;17.55;;;15.65;;
63738;SDS011;68816;45.558;10.070;2023-08-24T02:12:20;19.08;;;15.07;;
63738;SDS011;68816;45.558;10.070;2023-08-24T02:14:46;18.83;;;15.18;;
63738;SDS011;68816;45.558;10.070;2023-08-24T02:17:11;18.45;;;15.35;;
63738;SDS011;68816;45.558;10.070;2023-08-24T02:19:37;16.60;;;14.80;;
63738;SDS011;68816;45.558;10.070;2023-08-24T02:22:02;21.13;;;15.27;;
63738;SDS011;68816;45.558;10.070;2023-08-24T02:24:27;18.83;;;15.93;;
63738;SDS011;68816;45.558;10.070;2023-08-24T02:26:53;17.48;;;15.27;;
63738;SDS011;68816;45.558;10.070;2023-08-24T02:29:18;17.13;;;15.00;;
63738;SDS011;68816;45.558;10.070;2023-08-24T02:31:44;19.08;;;16.15;;
63738;SDS011;68816;45.558;10.070;2023-08-24T02:34:09;19.55;;;15.20;;
63738;SDS011;68816;45.558;10.070;2023-08-24T02:36:35;18.23;;;15.52;;
63738;SDS011;68816;45.558;10.070;2023-08-24T02:39:00;22.15;;;17.05;;
63738;SDS011;68816;45.558;10.070;2023-08-24T02:41:26;23.05;;;17.85;;
63738;SDS011;68816;45.558;10.070;2023-08-24T02:43:52;20.77;;;18.63;;
63738;SDS011;68816;45.558;10.070;2023-08-24T02:46:17;20.98;;;18.15;;
63738;SDS011;68816;45.558;10.070;2023-08-24T02:48:43;24.80;;;18.00;;
63738;SDS011;68816;45.558;10.070;2023-08-24T02:51:10;20.58;;;18.17;;
63738;SDS011;68816;45.558;10.070;2023-08-24T02:53:35;23.23;;;18.23;;
63738;SDS011;68816;45.558;10.070;2023-08-24T02:56:01;22.70;;;17.60;;
63738;SDS011;68816;45.558;10.070;2023-08-24T02:58:27;22.38;;;18.40;;
63738;SDS011;68816;45.558;10.070;2023-08-24T03:00:53;24.15;;;19.05;;
63738;SDS011;68816;45.558;10.070;2023-08-24T03:03:19;26.42;;;19.95;;
63738;SDS011;68816;45.558;10.070;2023-08-24T03:05:54;22.40;;;20.02;;
63738;SDS011;68816;45.558;10.070;2023-08-24T03:08:20;23.08;;;19.90;;
63738;SDS011;68816;45.558;10.070;2023-08-24T03:10:46;20.50;;;18.33;;
63738;SDS011;68816;45.558;10.070;2023-08-24T03:13:13;24.73;;;19.50;;
63738;SDS011;68816;45.558;10.070;2023-08-24T03:15:39;21.45;;;19.25;;
63738;SDS011;68816;45.558;10.070;2023-08-24T03:18:04;21.63;;;17.67;;
63738;SDS011;68816;45.558;10.070;2023-08-24T03:20:30;24.08;;;18.65;;
63738;SDS011;68816;45.558;10.070;2023-08-24T03:22:55;22.27;;;19.48;;
63738;SDS011;68816;45.558;10.070;2023-08-24T03:25:20;23.98;;;19.35;;
63738;SDS011;68816;45.558;10.070;2023-08-24T03:27:46;24.80;;;19.60;;
63738;SDS011;68816;45.558;10.070;2023-08-24T03:30:12;23.50;;;18.45;;
63738;SDS011;68816;45.558;10.070;2023-08-24T03:32:39;20.75;;;18.60;;
63738;SDS011;68816;45.558;10.070;2023-08-24T03:35:05;22.33;;;17.50;;
63738;SDS011;68816;45.558;10.070;2023-08-24T03:37:31;20.58;;;17.77;;
63738;SDS011;68816;45.558;10.070;2023-08-24T03:39:57;22.73;;;16.77;;
63738;SDS011;68816;45.558;10.070;2023-08-24T03:42:23;21.67;;;17.30;;
63738;SDS011;68816;45.558;10.070;2023-08-24T03:44:48;20.00;;;17.85;;
63738;SDS011;68816;45.558;10.070;2023-08-24T03:47:14;19.13;;;17.13;;
63738;SDS011;68816;45.558;10.070;2023-08-24T03:49:41;21.25;;;18.67;;
63738;SDS011;68816;45.558;10.070;2023-08-24T03:52:08;26.85;;;17.38;;
63738;SDS011;68816;45.558;10.070;2023-08-24T03:54:33;21.48;;;16.60;;
63738;SDS011;68816;45.558;10.070;2023-08-24T03:56:59;20.73;;;17.73;;
63738;SDS011;68816;45.558;10.070;2023-08-24T03:59:24;24.02;;;17.05;;
63738;SDS011;68816;45.558;10.070;2023-08-24T04:01:50;22.63;;;18.70;;
63738;SDS011;68816;45.558;10.070;2023-08-24T04:04:15;21.33;;;17.35;;
63738;SDS011;68816;45.558;10.070;2023-08-24T04:06:41;25.80;;;17.98;;
63738;SDS011;68816;45.558;10.070;2023-08-24T04:09:06;22.92;;;17.95;;
63738;SDS011;68816;45.558;10.070;2023-08-24T04:11:31;21.10;;;17.60;;
63738;SDS011;68816;45.558;10.070;2023-08-24T04:13:57;26.75;;;18.60;;
63738;SDS011;68816;45.558;10.070;2023-08-24T04:16:22;23.05;;;18.50;;
63738;SDS011;68816;45.558;10.070;2023-08-24T04:18:48;23.05;;;18.85;;
63738;SDS011;68816;45.558;10.070;2023-08-24T04:21:13;25.90;;;19.17;;
63738;SDS011;68816;45.558;10.070;2023-08-24T04:23:39;24.02;;;19.48;;
63738;SDS011;68816;45.558;10.070;2023-08-24T04:26:10;23.00;;;17.67;;
63738;SDS011;68816;45.558;10.070;2023-08-24T04:28:36;20.42;;;18.25;;
63738;SDS011;68816;45.558;10.070;2023-08-24T04:31:02;23.90;;;17.92;;
63738;SDS011;68816;45.558;10.070;2023-08-24T04:33:28;20.35;;;17.58;;
63738;SDS011;68816;45.558;10.070;2023-08-24T04:35:53;23.27;;;18.35;;
63738;SDS011;68816;45.558;10.070;2023-08-24T04:38:19;24.38;;;18.52;;
63738;SDS011;68816;45.558;10.070;2023-08-24T04:40:49;20.63;;;17.85;;
63738;SDS011;68816;45.558;10.070;2023-08-24T04:43:19;21.92;;;17.70;;
63738;SDS011;68816;45.558;10.070;2023-08-24T04:45:49;23.83;;;18.80;;
63738;SDS011;68816;45.558;10.070;2023-08-24T04:48:21;24.10;;;18.75;;
63738;SDS011;68816;45.558;10.070;2023-08-24T04:50:48;22.08;;;17.58;;
63738;SDS011;68816;45.558;10.070;2023-08-24T04:53:15;22.20;;;18.60;;
63738;SDS011;68816;45.558;10.070;2023-08-24T04:55:42;20.35;;;18.08;;
63738;SDS011;68816;45.558;10.070;2023-08-24T04:58:08;24.42;;;19.55;;
63738;SDS011;68816;45.558;10.070;2023-08-24T05:00:34;25.23;;;18.55;;
63738;SDS011;68816;45.558;10.070;2023-08-24T05:03:06;24.80;;;18.95;;
63738;SDS011;68816;45.558;10.070;2023-08-24T05:05:33;26.02;;;19.92;;
63738;SDS011;68816;45.558;10.070;2023-08-24T05:07:59;29.48;;;21.38;;
63738;SDS011;68816;45.558;10.070;2023-08-24T05:10:29;24.95;;;19.70;;
63738;SDS011;68816;45.558;10.070;2023-08-24T05:12:55;24.77;;;19.58;;
63738;SDS011;68816;45.558;10.070;2023-08-24T05:15:21;25.77;;;19.77;;
63738;SDS011;68816;45.558;10.070;2023-08-24T05:17:46;36.63;;;21.15;;
63738;SDS011;68816;45.558;10.070;2023-08-24T05:20:12;24.17;;;20.77;;
63738;SDS011;68816;45.558;10.070;2023-08-24T05:22:38;27.92;;;20.92;;
63738;SDS011;68816;45.558;10.070;2023-08-24T05:25:03;30.35;;;19.42;;
63738;SDS011;68816;45.558;10.070;2023-08-24T05:27:30;24.95;;;18.30;;
63738;SDS011;68816;45.558;10.070;2023-08-24T05:29:56;25.35;;;18.50;;
63738;SDS011;68816;45.558;10.070;2023-08-24T05:32:22;29.58;;;18.27;;
63738;SDS011;68816;45.558;10.070;2023-08-24T05:34:47;31.48;;;17.20;;
63738;SDS011;68816;45.558;10.070;2023-08-24T05:37:13;30.38;;;17.05;;
63738;SDS011;68816;45.558;10.070;2023-08-24T05:39:38;22.25;;;16.65;;
63738;SDS011;68816;45.558;10.070;2023-08-24T05:42:04;28.50;;;16.92;;
63738;SDS011;68816;45.558;10.070;2023-08-24T05:44:30;29.38;;;16.15;;
63738;SDS011;68816;45.558;10.070;2023-08-24T05:46:55;21.90;;;16.83;;
63738;SDS011;68816;45.558;10.070;2023-08-24T05:49:21;24.40;;;16.52;;
63738;SDS011;68816;45.558;10.070;2023-08-24T05:51:49;21.58;;;16.17;;
63738;SDS011;68816;45.558;10.070;2023-08-24T05:54:15;22.33;;;15.93;;
63738;SDS011;68816;45.558;10.070;2023-08-24T05:56:43;25.60;;;16.88;;
63738;SDS011;68816;45.558;10.070;2023-08-24T05:59:09;26.13;;;16.70;;
63738;SDS011;68816;45.558;10.070;2023-08-24T06:01:35;26.58;;;16.48;;
63738;SDS011;68816;45.558;10.070;2023-08-24T06:04:04;22.73;;;15.80;;
63738;SDS011;68816;45.558;10.070;2023-08-24T06:06:30;22.85;;;16.73;;
63738;SDS011;68816;45.558;10.070;2023-08-24T06:08:56;25.08;;;17.35;;
63738;SDS011;68816;45.558;10.070;2023-08-24T06:11:21;22.55;;;16.50;;
63738;SDS011;68816;45.558;10.070;2023-08-24T06:13:48;20.88;;;15.88;;
63738;SDS011;68816;45.558;10.070;2023-08-24T06:16:13;23.83;;;16.00;;
63738;SDS011;68816;45.558;10.070;2023-08-24T06:18:39;24.05;;;16.15;;
63738;SDS011;68816;45.558;10.070;2023-08-24T06:21:04;24.00;;;16.60;;
63738;SDS011;68816;45.558;10.070;2023-08-24T06:23:30;23.80;;;16.00;;
63738;SDS011;68816;45.558;10.070;2023-08-24T06:25:55;18.80;;;15.80;;
63738;SDS011;68816;45.558;10.070;2023-08-24T06:28:21;27.63;;;15.38;;
63738;SDS011;68816;45.558;10.070;2023-08-24T06:30:46;23.65;;;16.17;;
63738;SDS011;68816;45.558;10.070;2023-08-24T06:33:13;20.90;;;16.40;;
63738;SDS011;68816;45.558;10.070;2023-08-24T06:35:38;23.25;;;15.25;;
63738;SDS011;68816;45.558;10.070;2023-08-24T06:38:04;22.40;;;15.80;;
63738;SDS011;68816;45.558;10.070;2023-08-24T06:40:29;24.20;;;16.00;;
63738;SDS011;68816;45.558;10.070;2023-08-24T06:42:56;18.77;;;15.77;;
63738;SDS011;68816;45.558;10.070;2023-08-24T06:45:22;17.15;;;14.77;;
63738;SDS011;68816;45.558;10.070;2023-08-24T06:47:48;21.52;;;15.68;;
63738;SDS011;68816;45.558;10.070;2023-08-24T06:50:13;21.33;;;14.75;;
63738;SDS011;68816;45.558;10.070;2023-08-24T06:52:40;21.42;;;15.20;;
63738;SDS011;68816;45.558;10.070;2023-08-24T06:55:06;23.70;;;15.98;;
63738;SDS011;68816;45.558;10.070;2023-08-24T06:57:33;19.77;;;15.13;;
63738;SDS011;68816;45.558;10.070;2023-08-24T06:59:59;20.90;;;14.68;;
63738;SDS011;68816;45.558;10.070;2023-08-24T07:02:25;19.30;;;15.30;;
63738;SDS011;68816;45.558;10.070;2023-08-24T07:04:50;18.92;;;15.55;;
63738;SDS011;68816;45.558;10.070;2023-08-24T07:07:16;19.90;;;15.68;;
63738;SDS011;68816;45.558;10.070;2023-08-24T07:09:41;21.13;;;15.70;;
63738;SDS011;68816;45.558;10.070;2023-08-24T07:12:07;17.73;;;15.55;;
63738;SDS011;68816;45.558;10.070;2023-08-24T07:14:35;20.55;;;15.52;;
63738;SDS011;68816;45.558;10.070;2023-08-24T07:17:01;21.42;;;15.10;;
63738;SDS011;68816;45.558;10.070;2023-08-24T07:19:26;24.02;;;16.17;;
63738;SDS011;68816;45.558;10.070;2023-08-24T07:21:52;20.23;;;15.48;;
63738;SDS011;68816;45.558;10.070;2023-08-24T07:24:17;19.35;;;15.18;;
63738;SDS011;68816;45.558;10.070;2023-08-24T07:26:46;21.80;;;15.15;;
63738;SDS011;68816;45.558;10.070;2023-08-24T07:29:12;21.30;;;15.65;;
63738;SDS011;68816;45.558;10.070;2023-08-24T07:31:37;20.45;;;15.60;;
63738;SDS011;68816;45.558;10.070;2023-08-24T07:34:03;19.45;;;15.43;;
63738;SDS011;68816;45.558;10.070;2023-08-24T07:36:30;22.27;;;15.32;;
63738;SDS011;68816;45.558;10.070;2023-08-24T07:38:56;20.73;;;15.05;;
63738;SDS011;68816;45.558;10.070;2023-08-24T07:41:21;18.92;;;15.20;;
63738;SDS011;68816;45.558;10.070;2023-08-24T07:43:47;18.20;;;14.38;;
63738;SDS011;68816;45.558;10.070;2023-08-24T07:46:12;18.40;;;14.07;;
63738;SDS011;68816;45.558;10.070;2023-08-24T07:48:38;20.90;;;14.55;;
63738;SDS011;68816;45.558;10.070;2023-08-24T07:51:04;20.50;;;15.02;;
63738;SDS011;68816;45.558;10.070;2023-08-24T07:53:29;20.10;;;13.75;;
63738;SDS011;68816;45.558;10.070;2023-08-24T07:55:55;22.23;;;14.45;;
63738;SDS011;68816;45.558;10.070;2023-08-24T07:58:22;20.95;;;15.07;;
63738;SDS011;68816;45.558;10.070;2023-08-24T08:00:51;23.60;;;15.00;;
63738;SDS011;68816;45.558;10.070;2023-08-24T08:03:17;18.40;;;15.10;;
63738;SDS011;68816;45.558;10.070;2023-08-24T08:05:46;21.08;;;15.05;;
63738;SDS011;68816;45.558;10.070;2023-08-24T08:08:15;23.30;;;14.52;;
63738;SDS011;68816;45.558;10.070;2023-08-24T08:10:41;21.05;;;14.57;;
63738;SDS011;68816;45.558;10.070;2023-08-24T08:13:07;16.60;;;13.32;;
63738;SDS011;68816;45.558;10.070;2023-08-24T08:15:33;16.20;;;12.68;;
63738;SDS011;68816;45.558;10.070;2023-08-24T08:17:58;15.13;;;11.95;;
63738;SDS011;68816;45.558;10.070;2023-08-24T08:20:24;14.82;;;11.60;;
63738;SDS011;68816;45.558;10.070;2023-08-24T08:22:49;15.98;;;11.10;;
63738;SDS011;68816;45.558;10.070;2023-08-24T08:25:15;15.95;;;11.73;;
63738;SDS011;68816;45.558;10.070;2023-08-24T08:27:43;18.05;;;11.98;;
63738;SDS011;68816;45.558;10.070;2023-08-24T08:30:09;17.58;;;11.75;;
63738;SDS011;68816;45.558;10.070;2023-08-24T08:32:35;17.55;;;12.55;;
63738;SDS011;68816;45.558;10.070;2023-08-24T08:35:00;14.43;;;10.75;;
63738;SDS011;68816;45.558;10.070;2023-08-24T08:37:26;15.30;;;11.43;;
63738;SDS011;68816;45.558;10.070;2023-08-24T08:39:52;14.35;;;11.40;;
63738;SDS011;68816;45.558;10.070;2023-08-24T08:42:18;15.30;;;12.23;;
63738;SDS011;68816;45.558;10.070;2023-08-24T08:44:44;20.55;;;12.35;;
63738;SDS011;68816;45.558;10.070;2023-08-24T08:47:11;17.27;;;11.95;;
63738;SDS011;68816;45.558;10.070;2023-08-24T08:49:38;20.13;;;12.55;;
63738;SDS011;68816;45.558;10.070;2023-08-24T08:52:05;13.27;;;10.98;;
63738;SDS011;68816;45.558;10.070;2023-08-24T08:54:31;16.65;;;10.68;;
63738;SDS011;68816;45.558;10.070;2023-08-24T08:56:58;13.43;;;11.07;;
63738;SDS011;68816;45.558;10.070;2023-08-24T08:59:24;21.35;;;12.98;;
63738;SDS011;68816;45.558;10.070;2023-08-24T09:02:00;16.13;;;11.60;;
63738;SDS011;68816;45.558;10.070;2023-08-24T09:04:29;14.07;;;10.90;;
63738;SDS011;68816;45.558;10.070;2023-08-24T09:06:56;13.18;;;11.77;;
63738;SDS011;68816;45.558;10.070;2023-08-24T09:09:22;20.75;;;11.52;;
63738;SDS011;68816;45.558;10.070;2023-08-24T09:11:50;16.23;;;12.30;;
63738;SDS011;68816;45.558;10.070;2023-08-24T09:14:16;11.85;;;10.60;;
63738;SDS011;68816;45.558;10.070;2023-08-24T09:16:41;17.50;;;11.32;;
63738;SDS011;68816;45.558;10.070;2023-08-24T09:19:08;15.85;;;11.48;;
63738;SDS011;68816;45.558;10.070;2023-08-24T09:21:40;16.58;;;11.10;;
63738;SDS011;68816;45.558;10.070;2023-08-24T09:24:07;15.85;;;11.18;;
63738;SDS011;68816;45.558;10.070;2023-08-24T09:26:34;14.90;;;11.00;;
63738;SDS011;68816;45.558;10.070;2023-08-24T09:29:10;16.13;;;11.35;;
63738;SDS011;68816;45.558;10.070;2023-08-24T09:31:38;17.25;;;11.80;;
63738;SDS011;68816;45.558;10.070;2023-08-24T09:34:04;17.45;;;11.57;;
63738;SDS011;68816;45.558;10.070;2023-08-24T09:36:33;18.52;;;11.13;;
63738;SDS011;68816;45.558;10.070;2023-08-24T09:38:59;14.40;;;11.50;;
63738;SDS011;68816;45.558;10.070;2023-08-24T09:41:38;18.17;;;11.48;;
63738;SDS011;68816;45.558;10.070;2023-08-24T09:44:04;18.33;;;10.90;;
63738;SDS011;68816;45.558;10.070;2023-08-24T09:46:30;15.27;;;11.23;;
63738;SDS011;68816;45.558;10.070;2023-08-24T09:48:56;17.63;;;11.00;;
63738;SDS011;68816;45.558;10.070;2023-08-24T09:51:24;18.10;;;11.45;;
63738;SDS011;68816;45.558;10.070;2023-08-24T09:53:51;19.38;;;11.07;;
63738;SDS011;68816;45.558;10.070;2023-08-24T09:56:21;15.35;;;10.27;;
63738;SDS011;68816;45.558;10.070;2023-08-24T09:58:50;12.38;;;10.32;;
63738;SDS011;68816;45.558;10.070;2023-08-24T10:01:18;10.82;;;9.73;;
63738;SDS011;68816;45.558;10.070;2023-08-24T10:03:45;19.48;;;12.65;;
63738;SDS011;68816;45.558;10.070;2023-08-24T10:06:16;18.80;;;11.25;;
63738;SDS011;68816;45.558;10.070;2023-08-24T10:08:50;13.80;;;10.27;;
63738;SDS011;68816;45.558;10.070;2023-08-24T10:11:25;16.75;;;11.02;;
63738;SDS011;68816;45.558;10.070;2023-08-24T10:13:56;14.85;;;10.50;;
63738;SDS011;68816;45.558;10.070;2023-08-24T10:16:29;18.92;;;11.27;;
63738;SDS011;68816;45.558;10.070;2023-08-24T10:18:55;15.75;;;11.77;;
63738;SDS011;68816;45.558;10.070;2023-08-24T10:21:21;17.70;;;11.55;;
63738;SDS011;68816;45.558;10.070;2023-08-24T10:23:50;21.25;;;12.38;;
63738;SDS011;68816;45.558;10.070;2023-08-24T10:26:17;15.40;;;11.65;;
63738;SDS011;68816;45.558;10.070;2023-08-24T10:28:45;16.73;;;11.15;;
63738;SDS011;68816;45.558;10.070;2023-08-24T10:31:11;18.42;;;11.93;;
63738;SDS011;68816;45.558;10.070;2023-08-24T10:33:37;14.60;;;11.55;;
63738;SDS011;68816;45.558;10.070;2023-08-24T10:36:04;21.05;;;11.00;;
63738;SDS011;68816;45.558;10.070;2023-08-24T10:38:33;14.63;;;10.70;;
63738;SDS011;68816;45.558;10.070;2023-08-24T10:41:03;18.20;;;11.20;;
63738;SDS011;68816;45.558;10.070;2023-08-24T10:43:34;14.88;;;10.95;;
63738;SDS011;68816;45.558;10.070;2023-08-24T10:46:01;15.82;;;12.38;;
63738;SDS011;68816;45.558;10.070;2023-08-24T10:48:56;13.30;;;10.98;;
63738;SDS011;68816;45.558;10.070;2023-08-24T10:53:42;16.63;;;11.32;;
63738;SDS011;68816;45.558;10.070;2023-08-24T10:56:10;20.05;;;11.95;;
63738;SDS011;68816;45.558;10.070;2023-08-24T10:58:37;15.82;;;13.20;;
63738;SDS011;68816;45.558;10.070;2023-08-24T11:01:02;14.40;;;12.68;;
63738;SDS011;68816;45.558;10.070;2023-08-24T11:03:31;18.20;;;13.10;;
63738;SDS011;68816;45.558;10.070;2023-08-24T11:05:58;14.27;;;11.60;;
63738;SDS011;68816;45.558;10.070;2023-08-24T11:08:43;15.75;;;12.50;;
63738;SDS011;68816;45.558;10.070;2023-08-24T11:11:19;15.18;;;12.18;;
63738;SDS011;68816;45.558;10.070;2023-08-24T11:14:23;14.57;;;11.68;;
63738;SDS011;68816;45.558;10.070;2023-08-24T11:16:47;14.32;;;11.13;;
63738;SDS011;68816;45.558;10.070;2023-08-24T11:19:14;13.85;;;11.05;;
63738;SDS011;68816;45.558;10.070;2023-08-24T11:21:41;16.08;;;12.85;;
63738;SDS011;68816;45.558;10.070;2023-08-24T11:24:12;15.23;;;12.45;;
63738;SDS011;68816;45.558;10.070;2023-08-24T11:26:43;15.73;;;11.68;;
63738;SDS011;68816;45.558;10.070;2023-08-24T11:29:10;13.32;;;11.15;;
63738;SDS011;68816;45.558;10.070;2023-08-24T11:31:36;12.63;;;11.32;;
63738;SDS011;68816;45.558;10.070;2023-08-24T11:34:02;15.80;;;11.13;;
63738;SDS011;68816;45.558;10.070;2023-08-24T11:36:29;14.40;;;10.90;;
63738;SDS011;68816;45.558;10.070;2023-08-24T11:39:06;13.07;;;11.18;;
63738;SDS011;68816;45.558;10.070;2023-08-24T11:41:31;14.27;;;10.45;;
63738;SDS011;68816;45.558;10.070;2023-08-24T11:44:00;14.32;;;10.82;;
63738;SDS011;68816;45.558;10.070;2023-08-24T11:46:29;15.05;;;10.57;;
63738;SDS011;68816;45.558;10.070;2023-08-24T11:48:56;17.13;;;10.80;;
63738;SDS011;68816;45.558;10.070;2023-08-24T11:51:22;13.02;;;10.95;;
63738;SDS011;68816;45.558;10.070;2023-08-24T11:53:49;17.83;;;10.82;;
63738;SDS011;68816;45.558;10.070;2023-08-24T11:56:14;17.20;;;11.10;;
63738;SDS011;68816;45.558;10.070;2023-08-24T11:58:42;16.75;;;10.93;;
63738;SDS011;68816;45.558;10.070;2023-08-24T12:01:09;15.00;;;10.95;;
63738;SDS011;68816;45.558;10.070;2023-08-24T12:03:36;17.42;;;10.98;;
63738;SDS011;68816;45.558;10.070;2023-08-24T12:06:06;11.10;;;9.98;;
63738;SDS011;68816;45.558;10.070;2023-08-24T12:08:54;11.90;;;9.95;;
63738;SDS011;68816;45.558;10.070;2023-08-24T12:11:21;13.05;;;9.98;;
63738;SDS011;68816;45.558;10.070;2023-08-24T12:13:50;16.58;;;10.18;;
63738;SDS011;68816;45.558;10.070;2023-08-24T12:16:17;14.40;;;10.77;;
63738;SDS011;68816;45.558;10.070;2023-08-24T12:18:54;12.68;;;10.13;;
63738;SDS011;68816;45.558;10.070;2023-08-24T12:21:21;15.48;;;10.43;;
63738;SDS011;68816;45.558;10.070;2023-08-24T12:26:27;12.38;;;9.35;;
63738;SDS011;68816;45.558;10.070;2023-08-24T12:28:53;11.63;;;9.40;;
63738;SDS011;68816;45.558;10.070;2023-08-24T12:31:20;10.45;;;9.27;;
63738;SDS011;68816;45.558;10.070;2023-08-24T12:33:47;12.65;;;9.45;;
63738;SDS011;68816;45.558;10.070;2023-08-24T12:36:35;14.93;;;9.13;;
63738;SDS011;68816;45.558;10.070;2023-08-24T12:39:01;16.00;;;9.48;;
63738;SDS011;68816;45.558;10.070;2023-08-24T12:41:29;11.00;;;9.13;;
63738;SDS011;68816;45.558;10.070;2023-08-24T12:43:55;11.98;;;8.95;;
63738;SDS011;68816;45.558;10.070;2023-08-24T12:46:20;14.75;;;9.23;;
63738;SDS011;68816;45.558;10.070;2023-08-24T12:48:46;13.93;;;8.90;;
63738;SDS011;68816;45.558;10.070;2023-08-24T12:51:11;13.35;;;8.73;;
63738;SDS011;68816;45.558;10.070;2023-08-24T12:53:37;14.95;;;9.90;;
63738;SDS011;68816;45.558;10.070;2023-08-24T12:56:02;12.68;;;9.43;;
63738;SDS011;68816;45.558;10.070;2023-08-24T12:58:28;11.98;;;9.30;;
63738;SDS011;68816;45.558;10.070;2023-08-24T13:00:53;14.07;;;9.50;;
63738;SDS011;68816;45.558;10.070;2023-08-24T13:03:19;10.35;;;9.15;;
63738;SDS011;68816;45.558;10.070;2023-08-24T13:05:44;13.90;;;9.30;;
63738;SDS011;68816;45.558;10.070;2023-08-24T13:08:10;12.00;;;9.60;;
63738;SDS011;68816;45.558;10.070;2023-08-24T13:10:35;11.70;;;10.50;;
63738;SDS011;68816;45.558;10.070;2023-08-24T13:13:02;13.73;;;9.60;;
63738;SDS011;68816;45.558;10.070;2023-08-24T13:15:28;13.57;;;8.82;;
63738;SDS011;68816;45.558;10.070;2023-08-24T13:17:54;13.73;;;9.25;;
63738;SDS011;68816;45.558;10.070;2023-08-24T13:20:19;11.43;;;9.57;;
63738;SDS011;68816;45.558;10.070;2023-08-24T13:22:44;14.55;;;9.23;;
63738;SDS011;68816;45.558;10.070;2023-08-24T13:25:10;19.38;;;9.75;;
63738;SDS011;68816;45.558;10.070;2023-08-24T13:27:35;13.80;;;10.52;;
63738;SDS011;68816;45.558;10.070;2023-08-24T13:30:01;14.73;;;10.25;;
63738;SDS011;68816;45.558;10.070;2023-08-24T13:32:27;13.98;;;10.10;;
63738;SDS011;68816;45.558;10.070;2023-08-24T13:34:53;14.68;;;10.65;;
63738;SDS011;68816;45.558;10.070;2023-08-24T13:37:19;10.82;;;9.73;;
63738;SDS011;68816;45.558;10.070;2023-08-24T13:39:44;11.95;;;9.52;;
63738;SDS011;68816;45.558;10.070;2023-08-24T13:42:10;11.82;;;9.63;;
63738;SDS011;68816;45.558;10.070;2023-08-24T13:44:35;13.98;;;9.55;;
63738;SDS011;68816;45.558;10.070;2023-08-24T13:47:00;18.80;;;10.40;;
63738;SDS011;68816;45.558;10.070;2023-08-24T13:49:26;13.20;;;10.02;;
63738;SDS011;68816;45.558;10.070;2023-08-24T13:51:51;12.30;;;9.88;;
63738;SDS011;68816;45.558;10.070;2023-08-24T13:54:18;12.70;;;9.35;;
63738;SDS011;68816;45.558;10.070;2023-08-24T13:56:46;13.48;;;9.30;;
63738;SDS011;68816;45.558;10.070;2023-08-24T13:59:12;12.93;;;9.57;;
63738;SDS011;68816;45.558;10.070;2023-08-24T14:01:40;12.68;;;9.25;;
63738;SDS011;68816;45.558;10.070;2023-08-24T14:04:06;15.35;;;9.25;;
63738;SDS011;68816;45.558;10.070;2023-08-24T14:06:32;16.50;;;10.10;;
63738;SDS011;68816;45.558;10.070;2023-08-24T14:08:59;16.13;;;10.43;;
63738;SDS011;68816;45.558;10.070;2023-08-24T14:11:25;14.95;;;10.50;;
63738;SDS011;68816;45.558;10.070;2023-08-24T14:13:51;11.48;;;9.23;;
63738;SDS011;68816;45.558;10.070;2023-08-24T14:16:19;16.35;;;9.40;;
63738;SDS011;68816;45.558;10.070;2023-08-24T14:18:45;14.45;;;9.88;;
63738;SDS011;68816;45.558;10.070;2023-08-24T14:21:11;13.75;;;9.63;;